Ana Sayfa
METAR-TAF:

METAR-TAF

Havaalanları :

Kenneth Kaunda Uluslararası Havalimanı

Lusaka, Zambiya

Enlem: 15-19-51S, Boylam: 028-27-09E, yükseklik: 1152 m

Güncel hava durumu gözlemi

Rapor saat 03:00 UTC de 2 saat ve 3 dakika önce yapıldı.
Rüzgar güneydoğudan 3 kt
Sıcaklık 16°C
Nem 59%
Basınç 1020 hPa
Görüş mesafesi 10 km veya daha fazla
1500 m altında bulut yok ve kümülonimbus yok

METAR: FLKK 250300Z 13003KT CAVOK 16/08 Q1020

Saat: 07:03 (05:03 UTC)


TAF: eksik

4.000'den fazla havaalanı için hava durumu gözlemleri ve tahminleri (METAR ve TAF raporları).

Kullanılabilir istasyonlar harita üzerinde sarı ve kırmızı noktalarla gösterilir.

İstasyonun adını görmek için fareyi noktanın üzerinde gezdirin.

Sonrasında hava gözlem ve tahminlerini görmek için tıklayın.

Haritayı değiştirmek için: yaklaştırmak için siyah artı işaretli yeşil düğmeye ve uzaklaştırmak için de eksi işaretli düğmeye hızla tıklayın; bitişik haritalar için yeşil okları kullanın.


METAR-TAF: